CheckWX is a tool to help pilots better visualize weather data.  It is not intended as a substitute for an official pre-flight weather briefing.

19:02:51 UTC

PAWS METAR
Wasilla Airport
Wasilla, Alaska, USA
Current

7 mins ago

PAWS 201856Z AUTO 00000KT 6SM HZ OVC110 13/04 A2982 RMK AO2 SLP101 T01280039
Observed
Aug-20 @ 18:56 UTC
Visibility
6 SM
Flight Rules
VFR
Conditions
Haze
Cloud Levels
  • Overcast at 11,000' AGL
Temperature
13°C / 55°F
Dewpoint
C / 39°F
Humidity
55%
Altimeter
29.82" Hg
Pressure
1009.82 hPa
Previous

1 hour ago

PAWS 201756Z AUTO 00000KT 7SM FEW100 OVC110 12/05 A2982 RMK AO2 SLP103 T01170050 10117 20050 58007
Observed
Aug-20 @ 17:56 UTC
Visibility
7 SM
Flight Rules
VFR
Cloud Levels
  • Few at 10,000' AGL
  • Overcast at 11,000' AGL
Temperature
12°C / 54°F
Dewpoint
C / 41°F
Humidity
63%
Altimeter
29.82" Hg
Pressure
1009.82 hPa
Previous

2 hours ago

PAWS 201656Z AUTO 00000KT 10SM OVC110 09/03 A2983 RMK AO2 SLP105 T00940033
Observed
Aug-20 @ 16:56 UTC
Visibility
10 SM
Flight Rules
VFR
Cloud Levels
  • Overcast at 11,000' AGL
Temperature
C / 48°F
Dewpoint
C / 37°F
Humidity
66%
Altimeter
29.83" Hg
Pressure
1010.12 hPa